Time;durP1;ratioP1;P1;durP2;ratioP2;P2;SDS_P1;SDS_P2;PMS_P1;PMS_P2;Temp;Humidity;BMP_temperature;BMP_pressure;BME280_temperature;BME280_humidity;BME280_pressure;Samples;Min_cycle;Max_cycle;Signal;HPM_P1;HPM_P2
2023/01/21 00:02:11;;;;;;;84.15;27.92;;;;;;;-0.68;100.00;102643.66;5047673;28;20035;-36
2023/01/21 00:04:39;;;;;;;89.25;29.02;;;;;;;-0.77;100.00;102644.00;5045926;28;20086;-36
2023/01/21 00:07:05;;;;;;;114.43;29.35;;;;;;;-0.70;100.00;102653.41;5031903;28;20037;-37
2023/01/21 00:09:31;;;;;;;81.22;30.63;;;;;;;-0.76;100.00;102653.69;5041940;28;20025;-37
2023/01/21 00:11:57;;;;;;;83.47;30.00;;;;;;;-0.74;100.00;102662.44;5045422;28;20108;-39
2023/01/21 00:14:22;;;;;;;82.35;28.52;;;;;;;-0.78;100.00;102655.53;5041941;28;20029;-38
2023/01/21 00:16:47;;;;;;;89.35;29.25;;;;;;;-0.77;100.00;102657.25;5042065;28;20032;-37
2023/01/21 00:19:13;;;;;;;88.57;29.13;;;;;;;-0.85;100.00;102664.63;5030187;28;20112;-38
2023/01/21 00:21:38;;;;;;;79.32;28.70;;;;;;;-0.85;100.00;102666.41;5050030;28;20021;-38
2023/01/21 00:24:04;;;;;;;81.45;29.25;;;;;;;-0.85;100.00;102666.41;5036162;28;20082;-37
2023/01/21 00:26:29;;;;;;;85.97;29.80;;;;;;;-0.83;100.00;102680.44;5036058;28;20036;-36
2023/01/21 00:28:54;;;;;;;83.10;28.38;;;;;;;-0.83;100.00;102683.09;5031887;28;20160;-38
2023/01/21 00:31:20;;;;;;;91.18;30.23;;;;;;;-0.88;100.00;102681.47;5048901;28;20029;-37
2023/01/21 00:33:47;;;;;;;90.47;30.33;;;;;;;-0.89;100.00;102684.19;5033260;28;20040;-37
2023/01/21 00:36:13;;;;;;;92.50;32.00;;;;;;;-0.87;100.00;102698.19;5037271;28;20041;-37
2023/01/21 00:38:39;;;;;;;85.63;28.65;;;;;;;-0.81;100.00;102697.97;5044782;28;20049;-37
2023/01/21 00:41:06;;;;;;;93.43;31.00;;;;;;;-0.82;100.00;102704.16;5038841;28;20138;-36
2023/01/21 00:43:32;;;;;;;92.40;30.40;;;;;;;-0.80;100.00;102709.38;5044659;28;20056;-36
2023/01/21 00:45:57;;;;;;;87.97;30.80;;;;;;;-0.86;100.00;102709.66;5055005;28;20476;-36
2023/01/21 00:48:23;;;;;;;97.07;30.85;;;;;;;-0.86;100.00;102707.84;5036168;28;20033;-36
2023/01/21 00:50:50;;;;;;;86.20;31.50;;;;;;;-0.85;100.00;102701.63;5042100;28;20055;-39
2023/01/21 00:53:16;;;;;;;95.60;30.85;;;;;;;-0.94;100.00;102702.88;5043250;28;20025;-37
2023/01/21 00:55:42;;;;;;;95.55;30.35;;;;;;;-0.92;100.00;102708.13;5039170;28;20393;-37
2023/01/21 00:58:07;;;;;;;90.30;32.03;;;;;;;-0.97;100.00;102708.28;5046314;28;20033;-38
2023/01/21 01:00:32;;;;;;;104.00;32.08;;;;;;;-0.95;100.00;102705.56;5039273;28;20017;-38
2023/01/21 01:02:58;;;;;;;95.45;31.60;;;;;;;-0.99;100.00;102709.28;5053691;28;20384;-36
2023/01/21 01:05:23;;;;;;;93.63;33.63;;;;;;;-0.91;100.00;102712.47;5043605;28;20380;-36
2023/01/21 01:07:49;;;;;;;103.65;30.98;;;;;;;-0.96;100.00;102711.78;5039059;28;20392;-37
2023/01/21 01:10:15;;;;;;;94.53;31.10;;;;;;;-0.94;100.00;102717.88;5051242;28;20357;-36
2023/01/21 01:12:41;;;;;;;94.60;30.95;;;;;;;-1.00;100.00;102713.72;5053603;28;20124;-36
2023/01/21 01:15:06;;;;;;;98.78;33.33;;;;;;;-1.05;100.00;102720.94;5037609;28;20116;-36
2023/01/21 01:17:32;;;;;;;93.88;32.30;;;;;;;-1.01;100.00;102716.41;5041161;28;20079;-37
2023/01/21 01:19:57;;;;;;;99.55;32.75;;;;;;;-1.07;100.00;102716.66;5047559;28;20104;-37
2023/01/21 01:22:23;;;;;;;98.93;31.50;;;;;;;-1.05;100.00;102726.25;5039663;28;20049;-36
2023/01/21 01:24:48;;;;;;;100.65;32.03;;;;;;;-1.07;100.00;102728.06;5045873;28;20480;-36
2023/01/21 01:27:13;;;;;;;93.95;30.95;;;;;;;-1.20;100.00;102730.31;5042179;28;20032;-37
2023/01/21 01:29:39;;;;;;;98.20;30.98;;;;;;;-1.24;100.00;102735.78;5035152;28;20452;-36
2023/01/21 01:32:04;;;;;;;96.75;31.45;;;;;;;-1.18;100.00;102740.84;5032728;28;20100;-36
2023/01/21 01:34:29;;;;;;;103.63;32.72;;;;;;;-1.15;100.00;102751.28;5048506;28;20029;-37
2023/01/21 01:36:55;;;;;;;96.72;32.30;;;;;;;-1.13;100.00;102745.03;5047775;28;20549;-36
2023/01/21 01:39:20;;;;;;;102.63;32.83;;;;;;;-1.17;100.00;102756.63;5041821;28;20029;-36
2023/01/21 01:41:45;;;;;;;99.97;31.35;;;;;;;-1.13;100.00;102760.88;5039210;28;20082;-36
2023/01/21 01:44:52;;;;;;;105.53;32.63;;;;;;;-1.12;100.00;102764.38;5032661;28;20029;-36
2023/01/21 01:47:18;;;;;;;98.82;32.60;;;;;;;-1.17;100.00;102771.63;5040388;28;20361;-36
2023/01/21 01:49:43;;;;;;;103.68;32.47;;;;;;;-1.23;100.00;102770.09;5040917;28;20079;-36
2023/01/21 01:52:10;;;;;;;98.90;32.38;;;;;;;-1.26;100.00;102780.78;5049786;28;20033;-36
2023/01/21 01:54:41;;;;;;;106.22;31.85;;;;;;;-1.21;100.00;102791.13;5049544;28;20388;-36
2023/01/21 01:57:09;;;;;;;105.25;33.53;;;;;;;-1.25;100.00;102794.84;5030818;28;20124;-35
2023/01/21 01:59:34;;;;;;;;;;;;;;;-1.29;100.00;102793.22;5062255;28;20029;-35
2023/01/21 02:02:04;;;;;;;103.65;32.83;;;;;;;-1.35;100.00;102804.88;5044507;28;19913;-38
2023/01/21 02:04:35;;;;;;;99.05;30.13;;;;;;;-1.36;100.00;102804.00;5037854;28;20032;-35
2023/01/21 02:07:01;;;;;;;95.93;30.83;;;;;;;-1.34;100.00;102804.81;5032541;28;20036;-37
2023/01/21 02:09:28;;;;;;;97.63;32.13;;;;;;;-1.28;100.00;102809.00;5031713;28;20017;-36
2023/01/21 02:11:55;;;;;;;106.15;32.58;;;;;;;-1.31;100.00;102816.22;5044789;28;20125;-39
2023/01/21 02:14:20;;;;;;;103.95;32.95;;;;;;;-1.28;100.00;102829.28;5050548;28;20096;-37
2023/01/21 02:17:06;;;;;;;103.13;31.42;;;;;;;-1.36;100.00;102830.44;5063019;28;20028;-36
2023/01/21 02:20:02;;;;;;;101.80;33.65;;;;;;;-1.41;100.00;102840.28;5060058;28;20559;-37
2023/01/21 02:22:36;;;;;;;113.50;34.40;;;;;;;-1.44;100.00;102844.84;5034496;28;20033;-36
2023/01/21 02:25:42;;;;;;;112.47;33.95;;;;;;;-1.38;100.00;102856.03;5044655;28;20029;-36
2023/01/21 02:28:23;;;;;;;101.82;31.45;;;;;;;-1.29;100.00;102861.88;5013595;28;20048;-37
2023/01/21 02:31:22;;;;;;;99.45;31.52;;;;;;;-1.30;100.00;102861.03;5048504;28;20573;-37
2023/01/21 02:34:06;;;;;;;101.43;32.28;;;;;;;-1.26;100.00;102860.03;5034493;28;20065;-36
2023/01/21 02:36:42;;;;;;;91.65;30.52;;;;;;;-1.21;100.00;102863.34;5046265;28;20519;-37
2023/01/21 02:39:35;;;;;;;105.75;33.17;;;;;;;-1.17;100.00;102867.59;5033142;28;20047;-36
2023/01/21 02:42:40;;;;;;;107.72;34.08;;;;;;;-1.13;100.00;102879.78;5043610;28;20033;-38
2023/01/21 02:45:34;;;;;;;101.80;31.15;;;;;;;-1.08;100.00;102884.03;5031116;28;20548;-37
2023/01/21 02:48:05;;;;;;;99.57;32.40;;;;;;;-1.03;100.00;102882.06;5047329;28;20044;-36
2023/01/21 02:50:42;;;;;;;103.88;31.83;;;;;;;-0.98;100.00;102882.78;5033823;28;20245;-37
2023/01/21 02:53:28;;;;;;;96.50;30.73;;;;;;;-0.93;100.00;102891.41;5049868;28;20059;-35
2023/01/21 02:55:55;;;;;;;95.65;31.55;;;;;;;-0.91;100.00;102885.13;5039660;28;20032;-37
2023/01/21 02:58:25;;;;;;;96.53;31.87;;;;;;;-0.96;100.00;102884.44;5039455;28;20032;-36
2023/01/21 03:01:13;;;;;;;95.75;30.35;;;;;;;-0.86;100.00;102890.25;5038492;28;20288;-35
2023/01/21 03:04:27;;;;;;;102.07;30.67;;;;;;;-0.84;100.00;102893.72;5031875;28;20104;-36
2023/01/21 03:07:00;;;;;;;99.10;30.60;;;;;;;-0.83;100.00;102898.06;5007696;28;20047;-38
2023/01/21 03:09:30;;;;;;;97.75;32.20;;;;;;;-0.83;100.00;102890.13;5043259;28;20052;-36
2023/01/21 03:12:03;;;;;;;97.25;30.85;;;;;;;-0.77;100.00;102894.31;5036499;28;20559;-36
2023/01/21 03:17:46;;;;;;;89.25;30.70;;;;;;;-0.69;100.00;102900.19;5059731;28;20380;-36
2023/01/21 03:20:18;;;;;;;97.57;30.27;;;;;;;-0.63;100.00;102896.44;5039776;28;20094;-38
2023/01/21 03:22:43;;;;;;;97.35;32.22;;;;;;;-0.59;100.00;102900.69;5036249;28;20473;-36
2023/01/21 03:25:10;;;;;;;95.78;30.63;;;;;;;-0.62;100.00;102906.13;5033894;28;20036;-37
2023/01/21 03:27:38;;;;;;;90.07;30.45;;;;;;;-0.58;100.00;102910.34;5036683;28;20029;-36
2023/01/21 03:30:09;;;;;;;;;;;;;;;-0.55;100.00;102915.53;5042664;28;20065;-37
2023/01/21 03:32:34;;;;;;;90.88;29.25;;;;;;;-0.62;100.00;102914.03;5031271;28;19909;-37
2023/01/21 03:35:03;;;;;;;104.43;32.53;;;;;;;-0.60;100.00;102917.50;5068585;28;20056;-38
2023/01/21 03:37:41;;;;;;;;;;;;;;;-0.53;100.00;102913.69;5052095;28;20245;-36
2023/01/21 03:40:19;;;;;;;92.10;29.23;;;;;;;-0.55;100.00;102912.91;5041227;28;19917;-37
2023/01/21 03:42:49;;;;;;;93.80;33.15;;;;;;;-0.65;100.00;102904.44;5039569;28;20028;-37
2023/01/21 03:45:14;;;;;;;88.93;29.52;;;;;;;-0.65;100.00;102908.88;5054071;28;20016;-37
2023/01/21 03:47:42;;;;;;;96.22;30.25;;;;;;;-0.69;100.00;102903.69;5046711;28;20037;-37
2023/01/21 03:50:21;;;;;;;94.07;29.67;;;;;;;-0.65;100.00;102903.59;5042327;28;20037;-37
2023/01/21 03:52:46;;;;;;;94.43;29.85;;;;;;;-0.71;100.00;102899.38;5030183;28;20029;-37
2023/01/21 03:55:13;;;;;;;96.00;31.83;;;;;;;-0.76;100.00;102906.66;5029955;28;20033;-37
2023/01/21 03:57:38;;;;;;;91.95;30.80;;;;;;;-0.77;100.00;102907.53;5030388;28;20401;-37
2023/01/21 04:00:05;;;;;;;97.70;31.63;;;;;;;-0.74;100.00;102908.31;5030745;28;20030;-37
2023/01/21 04:02:30;;;;;;;92.55;30.35;;;;;;;-0.77;100.00;102911.03;5043203;28;20481;-37
2023/01/21 04:04:56;;;;;;;91.38;32.17;;;;;;;-0.83;100.00;102911.28;5031931;28;20083;-36
2023/01/21 04:07:21;;;;;;;103.97;31.88;;;;;;;-0.93;100.00;102916.03;5029131;28;20696;-37
2023/01/21 04:09:48;;;;;;;85.55;29.42;;;;;;;-0.91;100.00;102919.50;5027940;28;20117;-37
2023/01/21 04:12:14;;;;;;;94.18;29.80;;;;;;;-0.92;100.00;102922.22;5043589;28;20480;-36
2023/01/21 04:14:39;;;;;;;86.65;30.55;;;;;;;-0.88;100.00;102922.03;5049410;28;20028;-36
2023/01/21 04:17:05;;;;;;;102.07;30.58;;;;;;;-0.89;100.00;102922.09;5045114;28;20053;-37
2023/01/21 04:19:30;;;;;;;94.78;30.17;;;;;;;-0.91;100.00;102926.56;5036280;28;20061;-36
2023/01/21 04:21:55;;;;;;;96.63;29.50;;;;;;;-0.95;100.00;102922.31;5037917;28;20035;-36
2023/01/21 04:24:21;;;;;;;98.85;30.48;;;;;;;-0.96;100.00;102925.88;5050030;28;20104;-37
2023/01/21 04:26:46;;;;;;;95.90;30.77;;;;;;;-1.03;100.00;102930.50;5039730;28;20031;-37
2023/01/21 04:29:11;;;;;;;97.10;31.58;;;;;;;-1.08;100.00;102934.22;5041753;28;20052;-37
2023/01/21 04:31:37;;;;;;;88.60;30.27;;;;;;;-1.14;100.00;102940.59;5044593;28;20063;-37
2023/01/21 04:34:02;;;;;;;101.97;31.83;;;;;;;-1.19;100.00;102935.47;5051775;28;20498;-35
2023/01/21 04:36:27;;;;;;;97.32;30.65;;;;;;;-1.20;100.00;102944.34;5044200;28;20507;-38
2023/01/21 04:38:53;;;;;;;95.15;31.25;;;;;;;-1.20;100.00;102943.47;5032051;28;20559;-37
2023/01/21 04:41:18;;;;;;;99.72;32.55;;;;;;;-1.15;100.00;102941.53;5040005;28;20032;-36
2023/01/21 04:43:43;;;;;;;100.40;31.38;;;;;;;-1.14;100.00;102943.25;5027627;28;20038;-38
2023/01/21 04:46:09;;;;;;;90.22;30.50;;;;;;;-1.26;100.00;102944.56;5051026;28;20092;-38
2023/01/21 04:48:34;;;;;;;92.55;28.67;;;;;;;-1.37;100.00;102952.84;5044261;28;20025;-36
2023/01/21 04:51:00;;;;;;;99.65;32.30;;;;;;;-1.43;100.00;102955.69;5045350;28;20100;-36
2023/01/21 04:53:25;;;;;;;99.25;31.75;;;;;;;-1.47;100.00;102953.22;5040058;28;20083;-37
2023/01/21 04:55:51;;;;;;;95.95;32.50;;;;;;;-1.52;100.00;102960.44;5039108;28;20082;-37
2023/01/21 04:58:17;;;;;;;104.93;31.80;;;;;;;-1.57;100.00;102958.81;5035689;28;20030;-36
2023/01/21 05:00:42;;;;;;;96.80;32.38;;;;;;;-1.62;100.00;102957.22;5047810;28;20055;-36
2023/01/21 05:03:08;;;;;;;97.85;30.80;;;;;;;-1.70;100.00;102959.28;5051907;28;20456;-37
2023/01/21 05:05:33;;;;;;;98.47;31.35;;;;;;;-1.75;100.00;102962.06;5036967;28;20109;-37
2023/01/21 05:07:58;;;;;;;111.25;33.38;;;;;;;-1.78;100.00;102963.00;5031789;28;20061;-36
2023/01/21 05:10:24;;;;;;;99.47;31.80;;;;;;;-1.81;100.00;102967.53;5038797;28;20324;-37
2023/01/21 05:12:49;;;;;;;107.55;33.03;;;;;;;-1.84;100.00;102971.13;5047913;28;20041;-36
2023/01/21 05:15:14;;;;;;;106.25;30.75;;;;;;;-1.83;100.00;102969.34;5049461;28;20044;-36
2023/01/21 05:17:40;;;;;;;115.50;32.90;;;;;;;-1.85;100.00;102969.41;5049872;28;20059;-36
2023/01/21 05:20:06;;;;;;;116.03;32.47;;;;;;;-1.87;100.00;102986.19;5047880;28;20040;-37
2023/01/21 05:22:31;;;;;;;106.10;30.92;;;;;;;-1.86;100.00;102993.22;5044292;28;20119;-37
2023/01/21 05:24:58;;;;;;;109.68;32.08;;;;;;;-1.85;100.00;102992.28;5048969;28;20033;-36
2023/01/21 05:27:23;;;;;;;107.82;30.80;;;;;;;-1.83;100.00;102993.13;5049254;28;20040;-37
2023/01/21 05:29:49;;;;;;;113.35;33.33;;;;;;;-1.79;100.00;102992.09;5039519;28;20086;-37
2023/01/21 05:32:14;;;;;;;111.28;32.95;;;;;;;-1.75;100.00;102999.00;5031941;28;20072;-36
2023/01/21 05:34:39;;;;;;;105.43;33.53;;;;;;;-1.73;100.00;102997.19;5031177;28;20033;-37
2023/01/21 05:37:05;;;;;;;109.97;32.50;;;;;;;-1.68;100.00;103008.47;5029475;28;20453;-37
2023/01/21 05:39:30;;;;;;;105.90;33.42;;;;;;;-1.67;100.00;103007.53;5032426;28;20416;-37
2023/01/21 05:41:55;;;;;;;100.07;31.55;;;;;;;-1.64;100.00;103002.16;5030958;28;20037;-37
2023/01/21 05:44:21;;;;;;;101.57;32.28;;;;;;;-1.66;100.00;103009.28;5038095;28;20047;-35
2023/01/21 05:46:46;;;;;;;100.88;32.42;;;;;;;-1.60;100.00;103011.72;5034889;28;20025;-37
2023/01/21 05:49:11;;;;;;;100.97;33.53;;;;;;;-1.57;100.00;103008.97;5049409;28;20295;-38
2023/01/21 05:51:36;;;;;;;99.05;31.77;;;;;;;-1.62;100.00;103018.81;5040391;28;20420;-37
2023/01/21 05:54:02;;;;;;;109.40;31.67;;;;;;;-1.64;100.00;103028.56;5035618;28;20370;-37
2023/01/21 05:56:27;;;;;;;99.57;34.08;;;;;;;-1.66;100.00;103022.50;5038191;28;20451;-37
2023/01/21 05:58:53;;;;;;;99.18;31.13;;;;;;;-1.70;100.00;103022.63;5046397;28;20044;-36
2023/01/21 06:01:18;;;;;;;102.00;31.42;;;;;;;-1.72;100.00;103022.66;5044701;28;20419;-37
2023/01/21 06:03:43;;;;;;;110.45;33.65;;;;;;;-1.69;100.00;103038.41;5040069;28;20040;-38
2023/01/21 06:06:09;;;;;;;90.95;30.45;;;;;;;-1.66;100.00;103045.38;5033093;28;20037;-37
2023/01/21 06:08:34;;;;;;;95.82;32.15;;;;;;;-1.62;100.00;103045.22;5042687;28;20404;-37
2023/01/21 06:10:59;;;;;;;105.40;33.33;;;;;;;-1.70;100.00;103047.25;5032508;28;20152;-37
2023/01/21 06:13:25;;;;;;;102.45;31.08;;;;;;;-1.77;100.00;103053.63;5037670;28;20096;-37
2023/01/21 06:15:54;;;;;;;99.97;32.17;;;;;;;-1.79;100.00;103055.44;5043738;28;20392;-37
2023/01/21 06:18:19;;;;;;;98.13;31.42;;;;;;;-1.77;100.00;103056.25;5034068;28;20021;-37
2023/01/21 06:20:45;;;;;;;102.38;31.45;;;;;;;-1.84;100.00;103057.38;5045847;28;20124;-36
2023/01/21 06:23:10;;;;;;;108.57;30.55;;;;;;;-1.79;100.00;103061.59;5044608;28;20088;-36
2023/01/21 06:25:36;;;;;;;98.15;31.75;;;;;;;-1.77;100.00;103069.47;5056051;28;20049;-36
2023/01/21 06:28:01;;;;;;;101.45;30.65;;;;;;;-1.83;100.00;103075.78;5051003;28;20033;-36
2023/01/21 06:30:26;;;;;;;106.80;31.27;;;;;;;-1.90;100.00;103078.66;5053003;28;20028;-36
2023/01/21 06:32:52;;;;;;;92.80;29.55;;;;;;;-1.97;100.00;103078.00;5045140;28;20025;-36
2023/01/21 06:35:17;;;;;;;108.53;34.20;;;;;;;-2.01;100.00;103071.94;5044083;28;20045;-36
2023/01/21 06:37:44;;;;;;;97.38;30.83;;;;;;;-2.07;100.00;103077.41;5053520;28;20051;-36
2023/01/21 06:40:10;;;;;;;96.85;30.17;;;;;;;-2.09;100.00;103084.50;5050824;28;20037;-36
2023/01/21 06:42:36;;;;;;;92.25;30.77;;;;;;;-2.09;100.00;103089.75;5040685;28;20031;-36
2023/01/21 06:45:01;;;;;;;115.65;34.67;;;;;;;-2.05;100.00;103095.84;5039093;28;20037;-36
2023/01/21 06:47:26;;;;;;;106.45;32.55;;;;;;;-2.09;100.00;103096.81;5031490;28;20415;-35
2023/01/21 06:49:52;;;;;;;105.95;32.90;;;;;;;-2.11;100.00;103090.72;5033301;28;20098;-38
2023/01/21 06:52:17;;;;;;;104.78;33.17;;;;;;;-2.12;100.00;103110.97;5043102;28;20045;-37
2023/01/21 06:54:42;;;;;;;110.82;32.92;;;;;;;-2.05;100.00;103104.63;5038437;28;20123;-37
2023/01/21 06:57:09;;;;;;;111.85;35.70;;;;;;;-2.08;100.00;103107.34;5045117;28;20551;-37
2023/01/21 06:59:35;;;;;;;105.00;31.25;;;;;;;-2.07;100.00;103103.78;5037798;28;20061;-36
2023/01/21 07:02:00;;;;;;;105.18;32.92;;;;;;;-2.03;100.00;103102.78;5031386;28;20114;-36
2023/01/21 07:04:26;;;;;;;110.75;32.85;;;;;;;-2.09;100.00;103105.59;5042379;28;20037;-36
2023/01/21 07:06:51;;;;;;;103.57;32.25;;;;;;;-2.07;100.00;103101.16;5043262;28;20556;-37
2023/01/21 07:09:17;;;;;;;109.28;34.70;;;;;;;-2.08;100.00;103115.25;5032410;28;20341;-36
2023/01/21 07:11:42;;;;;;;104.63;32.85;;;;;;;-2.05;100.00;103120.44;5040157;28;20030;-37
2023/01/21 07:14:08;;;;;;;110.03;34.40;;;;;;;-2.05;100.00;103117.81;5028780;28;20057;-38
2023/01/21 07:16:33;;;;;;;108.43;33.08;;;;;;;-2.08;100.00;103117.91;5028550;28;20033;-36
2023/01/21 07:18:59;;;;;;;126.85;35.13;;;;;;;-2.09;100.00;103116.16;5029930;28;20087;-36
2023/01/21 07:21:24;;;;;;;125.82;34.28;;;;;;;-2.14;100.00;103123.31;5032834;28;20028;-38
2023/01/21 07:23:53;;;;;;;130.35;34.78;;;;;;;-2.14;100.00;103123.31;5048542;28;20033;-38
2023/01/21 07:26:19;;;;;;;122.00;33.58;;;;;;;-2.14;100.00;103133.03;5034359;28;20084;-37
2023/01/21 07:28:44;;;;;;;118.07;34.15;;;;;;;-2.14;100.00;103133.88;5047441;28;20380;-37
2023/01/21 07:31:10;;;;;;;121.95;35.95;;;;;;;-2.14;100.00;103141.78;5038059;28;20438;-36
2023/01/21 07:33:35;;;;;;;124.90;35.33;;;;;;;-2.13;100.00;103142.66;5048529;28;20083;-36
2023/01/21 07:36:01;;;;;;;127.40;35.47;;;;;;;-2.14;100.00;103148.84;5050400;28;20076;-37
2023/01/21 07:38:26;;;;;;;129.57;37.00;;;;;;;-2.14;100.00;103147.06;5046898;28;20025;-37
2023/01/21 07:40:52;;;;;;;127.07;35.97;;;;;;;-2.11;100.00;103148.75;5048861;28;20040;-37
2023/01/21 07:43:17;;;;;;;135.38;36.13;;;;;;;-2.11;100.00;103146.13;5047750;28;20326;-36
2023/01/21 07:45:42;;;;;;;124.35;36.03;;;;;;;-2.11;100.00;103148.75;5049977;28;20112;-37
2023/01/21 07:48:09;;;;;;;137.85;35.90;;;;;;;-2.09;100.00;103153.09;5035090;28;20028;-36
2023/01/21 07:50:34;;;;;;;124.95;34.88;;;;;;;-2.06;100.00;103153.00;5030233;28;20021;-36
2023/01/21 07:52:59;;;;;;;126.68;33.97;;;;;;;-2.04;100.00;103161.75;5028418;28;20410;-36
2023/01/21 07:55:26;;;;;;;123.43;34.63;;;;;;;-2.00;100.00;103175.72;5035232;28;20102;-36
2023/01/21 07:57:51;;;;;;;124.38;34.97;;;;;;;-1.97;100.00;103186.19;5047424;28;20047;-36
2023/01/21 08:00:17;;;;;;;133.52;36.95;;;;;;;-1.91;100.00;103188.66;5046119;28;20465;-36
2023/01/21 08:02:42;;;;;;;121.35;34.95;;;;;;;-1.87;100.00;103184.13;5029435;28;20405;-36
2023/01/21 08:05:09;;;;;;;132.02;36.88;;;;;;;-1.70;100.00;103186.31;5037703;28;20029;-38
2023/01/21 08:07:35;;;;;;;124.97;35.00;;;;;;;-1.50;100.00;103198.91;5045733;28;20029;-37
2023/01/21 08:10:01;;;;;;;126.38;36.22;;;;;;;-1.31;100.00;103204.53;5031580;28;20526;-38
2023/01/21 08:12:26;;;;;;;125.35;36.78;;;;;;;-1.18;100.00;103201.44;5028548;28;20017;-37
2023/01/21 08:14:52;;;;;;;128.52;37.15;;;;;;;-1.14;100.00;103197.78;5045389;28;20032;-37
2023/01/21 08:17:17;;;;;;;118.03;35.58;;;;;;;-1.04;100.00;103208.06;5045259;28;20022;-37
2023/01/21 08:19:42;;;;;;;113.93;34.13;;;;;;;-0.95;100.00;103213.06;5044384;28;20024;-37
2023/01/21 08:22:08;;;;;;;110.57;34.70;;;;;;;-0.80;100.00;103211.72;5045858;28;20120;-37
2023/01/21 08:24:33;;;;;;;109.22;34.35;;;;;;;-0.51;100.00;103223.97;5041604;28;20542;-37
2023/01/21 08:26:59;;;;;;;113.60;34.38;;;;;;;-0.30;100.00;103225.03;5041674;28;20021;-36
2023/01/21 08:29:24;;;;;;;108.72;34.00;;;;;;;-0.13;100.00;103225.31;5037624;28;20074;-36
2023/01/21 08:31:51;;;;;;;114.32;35.75;;;;;;;0.47;100.00;103233.72;5038401;28;20083;-38
2023/01/21 08:34:16;;;;;;;98.68;34.72;;;;;;;0.96;100.00;103230.97;5032154;28;20103;-38
2023/01/21 08:36:42;;;;;;;100.35;34.63;;;;;;;1.46;100.00;103239.53;5030886;28;20049;-38
2023/01/21 08:39:07;;;;;;;89.35;32.85;;;;;;;1.73;100.00;103244.59;5045719;28;20035;-36
2023/01/21 08:41:33;;;;;;;92.60;33.40;;;;;;;2.41;100.00;103253.97;5044367;28;20132;-36
2023/01/21 08:43:58;;;;;;;83.22;33.65;;;;;;;3.07;100.00;103255.34;5033454;28;20064;-38
2023/01/21 08:46:24;;;;;;;81.47;31.52;;;;;;;4.04;100.00;103263.84;5030979;28;20029;-38
2023/01/21 08:48:50;;;;;;;66.78;28.77;;;;;;;4.24;100.00;103268.13;5033108;28;20075;-38
2023/01/21 08:51:15;;;;;;;70.13;28.75;;;;;;;4.82;100.00;103273.00;5032262;28;20082;-39
2023/01/21 08:53:41;;;;;;;66.63;29.17;;;;;;;4.67;100.00;103263.16;5048602;28;20025;-37
2023/01/21 08:56:06;;;;;;;62.70;28.10;;;;;;;5.06;100.00;103247.59;5050422;28;20033;-37
2023/01/21 08:58:32;;;;;;;60.85;28.02;;;;;;;5.54;100.00;103228.81;5049884;28;20023;-39
2023/01/21 09:00:57;;;;;;;62.63;28.08;;;;;;;5.77;100.00;103192.72;5036599;28;20383;-36
2023/01/21 09:03:23;;;;;;;63.30;27.80;;;;;;;5.88;100.00;103179.56;5045968;28;20029;-38
2023/01/21 09:05:50;;;;;;;64.93;29.77;;;;;;;6.31;100.00;103168.91;5046927;28;20026;-37
2023/01/21 09:08:16;;;;;;;59.85;28.50;;;;;;;6.79;100.00;103177.44;5045368;28;20698;-37
2023/01/21 09:13:39;;;;;;;63.47;29.58;;;;;;;7.04;100.00;103173.13;5027103;28;20451;-38
2023/01/21 09:16:19;;;;;;;64.03;29.30;;;;;;;7.22;100.00;103168.38;5047833;28;20108;-37
2023/01/21 09:18:46;;;;;;;66.28;29.85;;;;;;;6.97;100.00;103174.50;5054358;28;20033;-38
2023/01/21 09:21:12;;;;;;;61.30;28.65;;;;;;;6.68;100.00;103174.56;5053151;28;20029;-36
2023/01/21 09:23:38;;;;;;;69.53;30.40;;;;;;;6.19;100.00;103177.72;5053183;28;20112;-38
2023/01/21 09:26:06;;;;;;;64.10;29.52;;;;;;;6.07;100.00;103173.13;5052994;28;20029;-38
2023/01/21 09:28:34;;;;;;;62.38;27.85;;;;;;;7.08;100.00;103184.50;5050836;28;20111;-38
2023/01/21 09:31:02;;;;;;;64.00;27.75;;;;;;;7.12;100.00;103177.97;5051549;28;20468;-38
2023/01/21 09:33:28;;;;;;;64.50;30.65;;;;;;;7.38;100.00;103195.00;5052883;28;20068;-38
2023/01/21 09:35:58;;;;;;;64.95;29.90;;;;;;;7.80;100.00;103195.72;5052844;28;20041;-38
2023/01/21 09:38:24;;;;;;;62.78;27.75;;;;;;;7.75;100.00;103197.84;5053143;28;20044;-38
2023/01/21 09:40:50;;;;;;;60.90;29.05;;;;;;;7.23;100.00;103200.41;5053063;28;20029;-38
2023/01/21 09:43:33;;;;;;;67.97;28.70;;;;;;;6.94;100.00;103201.47;5033426;28;20029;-38
2023/01/21 09:46:01;;;;;;;68.65;29.58;;;;;;;6.84;100.00;103197.66;5034285;28;20037;-38
2023/01/21 09:48:30;;;;;;;74.18;30.27;;;;;;;6.86;100.00;103209.16;5032077;28;20064;-38
2023/01/21 09:50:57;;;;;;;69.15;29.88;;;;;;;6.49;100.00;103207.00;5032340;28;20034;-38
2023/01/21 09:53:37;;;;;;;78.57;31.10;;;;;;;6.36;100.00;103212.25;5033163;28;20037;-36
2023/01/21 09:56:07;;;;;;;74.85;30.75;;;;;;;6.26;100.00;103216.47;5032883;28;20033;-36
2023/01/21 09:58:46;;;;;;;76.25;30.73;;;;;;;6.58;100.00;103221.59;5032112;28;20101;-38
2023/01/21 10:01:30;;;;;;;79.68;30.92;;;;;;;6.57;100.00;103215.41;5031477;28;20361;-37
2023/01/21 10:04:02;;;;;;;75.68;30.60;;;;;;;6.54;100.00;103220.94;5032897;28;20029;-38
2023/01/21 10:06:34;;;;;;;69.13;30.33;;;;;;;6.64;100.00;103223.91;5031846;28;20047;-38
2023/01/21 10:09:19;;;;;;;76.30;30.75;;;;;;;6.47;100.00;103229.44;5034665;28;20413;-38
2023/01/21 10:11:50;;;;;;;76.85;31.88;;;;;;;6.19;100.00;103225.84;5041701;28;20052;-37
2023/01/21 10:14:23;;;;;;;79.70;30.95;;;;;;;5.87;100.00;103227.75;5039174;28;20036;-37
2023/01/21 10:17:04;;;;;;;72.70;29.88;;;;;;;5.63;100.00;103238.09;5042652;28;20718;-36
2023/01/21 10:19:38;;;;;;;79.20;31.85;;;;;;;5.80;100.00;103235.28;5041836;28;20448;-38
2023/01/21 10:22:26;;;;;;;75.65;30.98;;;;;;;5.82;100.00;103228.06;5039608;28;20464;-37
2023/01/21 10:25:02;;;;;;;79.38;30.70;;;;;;;5.84;100.00;103228.78;5042224;28;20431;-38
2023/01/21 10:27:32;;;;;;;83.70;31.75;;;;;;;5.34;100.00;103226.44;5037811;28;20037;-39
2023/01/21 10:30:16;;;;;;;80.07;31.35;;;;;;;4.72;100.00;103234.44;5038404;28;20345;-38
2023/01/21 10:32:42;;;;;;;82.53;30.70;;;;;;;4.35;100.00;103236.44;5039037;28;20516;-36
2023/01/21 10:35:17;;;;;;;88.53;33.60;;;;;;;4.32;100.00;103241.94;5040548;28;20049;-38
2023/01/21 10:38:12;;;;;;;88.40;31.58;;;;;;;4.84;100.00;103244.41;5037854;28;20102;-38
2023/01/21 10:40:42;;;;;;;89.88;30.77;;;;;;;5.23;100.00;103246.63;5033888;28;20739;-38
2023/01/21 10:43:29;;;;;;;87.10;32.00;;;;;;;5.58;100.00;103254.41;5038088;28;20043;-38
2023/01/21 10:46:00;;;;;;;79.43;29.90;;;;;;;5.64;100.00;103256.72;5037525;28;20252;-37
2023/01/21 10:48:46;;;;;;;73.10;28.52;;;;;;;5.58;100.00;103251.75;5030011;28;20034;-39
2023/01/21 10:51:14;;;;;;;73.45;27.15;;;;;;;5.14;100.00;103260.50;5028176;28;20159;-37
2023/01/21 10:53:42;;;;;;;64.95;25.92;;;;;;;4.68;100.00;103260.38;5030749;28;20033;-38
2023/01/21 10:56:08;;;;;;;;;;;;;;;4.19;100.00;103255.06;5030849;28;20041;-38
2023/01/21 10:58:53;;;;;;;64.65;25.70;;;;;;;4.04;100.00;103255.84;5046636;28;19909;-37
2023/01/21 11:01:28;;;;;;;66.55;26.60;;;;;;;4.16;100.00;103269.41;5055673;28;20037;-38
2023/01/21 11:03:57;;;;;;;66.10;25.70;;;;;;;3.95;100.00;103267.84;5032620;28;20055;-37
2023/01/21 11:06:25;;;;;;;69.72;26.92;;;;;;;3.55;100.00;103272.50;5038501;28;20395;-37
2023/01/21 11:08:54;;;;;;;71.10;28.30;;;;;;;3.19;100.00;103260.09;5040203;28;20177;-36
2023/01/21 11:11:31;;;;;;;74.15;26.95;;;;;;;2.79;100.00;103272.63;5039239;28;20033;-38
2023/01/21 11:13:56;;;;;;;73.78;26.42;;;;;;;2.45;100.00;103275.09;5039359;28;20021;-38
2023/01/21 11:16:42;;;;;;;81.00;30.25;;;;;;;2.04;100.00;103280.47;5038892;28;20118;-36